<?xml version="1.0" encoding="UTF-8" standalone="no" ?>
<gpx xmlns="http://www.topografix.com/GPX/1/1" xmlns:xsi="http://www.w3.org/2001/XMLSchema-instance" xsi:schemaLocation="http://www.topografix.com/GPX/1/1 http://www.topografix.com/GPX/1/1/gpx.xsd" version="1.1" creator="VisuGPX - https://www.visugpx.com">
  <metadata>
    <name>03.06.2020 -Obernai  Hohneck</name>
  </metadata>
  <trk>
    <name><![CDATA[11414997-Obernai  Hohneck]]></name>
    <extensions>
      <line xmlns="http://www.topografix.com/GPX/gpx_style/0/2">
        <color>0000FF</color>
        <width>4</width>
      </line>
    </extensions>
    <trkseg>
      <trkpt lat="48.45824" lon="7.49222">
        <ele>173</ele>
        <time>2022-06-09T14:59:20Z</time>
      </trkpt>
      <trkpt lat="48.45657" lon="7.4915">
        <ele>172</ele>
        <time>2022-06-09T14:59:51Z</time>
      </trkpt>
      <trkpt lat="48.45645" lon="7.49122">
        <ele>173</ele>
        <time>2022-06-09T14:59:55Z</time>
      </trkpt>
      <trkpt lat="48.45696" lon="7.48916">
        <ele>173</ele>
        <time>2022-06-09T15:00:21Z</time>
      </trkpt>
      <trkpt lat="48.45697" lon="7.48839">
        <ele>176</ele>
        <time>2022-06-09T15:00:30Z</time>
      </trkpt>
      <trkpt lat="48.45757" lon="7.486">
        <ele>181</ele>
        <time>2022-06-09T15:01:00Z</time>
      </trkpt>
      <trkpt lat="48.45587" lon="7.48497">
        <ele>184</ele>
        <time>2022-06-09T15:01:33Z</time>
      </trkpt>
      <trkpt lat="48.45533" lon="7.48534">
        <ele>182</ele>
        <time>2022-06-09T15:01:43Z</time>
      </trkpt>
      <trkpt lat="48.45449" lon="7.48483">
        <ele>180</ele>
        <time>2022-06-09T15:01:59Z</time>
      </trkpt>
      <trkpt lat="48.45123" lon="7.48403">
        <ele>181</ele>
        <time>2022-06-09T15:02:58Z</time>
      </trkpt>
      <trkpt lat="48.45116" lon="7.48344">
        <ele>181</ele>
        <time>2022-06-09T15:03:05Z</time>
      </trkpt>
      <trkpt lat="48.45128" lon="7.48259">
        <ele>182</ele>
        <time>2022-06-09T15:03:15Z</time>
      </trkpt>
      <trkpt lat="48.45239" lon="7.47862">
        <ele>185</ele>
        <time>2022-06-09T15:04:06Z</time>
      </trkpt>
      <trkpt lat="48.45395" lon="7.47361">
        <ele>194</ele>
        <time>2022-06-09T15:05:12Z</time>
      </trkpt>
      <trkpt lat="48.45521" lon="7.4701">
        <ele>205</ele>
        <time>2022-06-09T15:05:59Z</time>
      </trkpt>
      <trkpt lat="48.45544" lon="7.47003">
        <ele>206</ele>
        <time>2022-06-09T15:06:03Z</time>
      </trkpt>
      <trkpt lat="48.45457" lon="7.46929">
        <ele>207</ele>
        <time>2022-06-09T15:06:21Z</time>
      </trkpt>
      <trkpt lat="48.45335" lon="7.46841">
        <ele>210</ele>
        <time>2022-06-09T15:06:45Z</time>
      </trkpt>
      <trkpt lat="48.45343" lon="7.46577">
        <ele>223</ele>
        <time>2022-06-09T15:07:16Z</time>
      </trkpt>
      <trkpt lat="48.45333" lon="7.46518">
        <ele>224</ele>
        <time>2022-06-09T15:07:23Z</time>
      </trkpt>
      <trkpt lat="48.45296" lon="7.46417">
        <ele>225</ele>
        <time>2022-06-09T15:07:37Z</time>
      </trkpt>
      <trkpt lat="48.45255" lon="7.46378">
        <ele>225</ele>
        <time>2022-06-09T15:07:45Z</time>
      </trkpt>
      <trkpt lat="48.45206" lon="7.46128">
        <ele>227</ele>
        <time>2022-06-09T15:08:16Z</time>
      </trkpt>
      <trkpt lat="48.45171" lon="7.45979">
        <ele>228</ele>
        <time>2022-06-09T15:08:35Z</time>
      </trkpt>
      <trkpt lat="48.45116" lon="7.45844">
        <ele>227</ele>
        <time>2022-06-09T15:08:53Z</time>
      </trkpt>
      <trkpt lat="48.45003" lon="7.45823">
        <ele>219</ele>
        <time>2022-06-09T15:09:14Z</time>
      </trkpt>
      <trkpt lat="48.44951" lon="7.45539">
        <ele>215</ele>
        <time>2022-06-09T15:09:48Z</time>
      </trkpt>
      <trkpt lat="48.4493" lon="7.45215">
        <ele>227</ele>
        <time>2022-06-09T15:10:27Z</time>
      </trkpt>
      <trkpt lat="48.44919" lon="7.44649">
        <ele>246</ele>
        <time>2022-06-09T15:11:34Z</time>
      </trkpt>
      <trkpt lat="48.44897" lon="7.44423">
        <ele>251</ele>
        <time>2022-06-09T15:12:01Z</time>
      </trkpt>
      <trkpt lat="48.44706" lon="7.44417">
        <ele>247</ele>
        <time>2022-06-09T15:12:35Z</time>
      </trkpt>
      <trkpt lat="48.44293" lon="7.44566">
        <ele>226</ele>
        <time>2022-06-09T15:13:50Z</time>
      </trkpt>
      <trkpt lat="48.44184" lon="7.44382">
        <ele>232</ele>
        <time>2022-06-09T15:14:19Z</time>
      </trkpt>
      <trkpt lat="48.43971" lon="7.44481">
        <ele>237</ele>
        <time>2022-06-09T15:14:59Z</time>
      </trkpt>
      <trkpt lat="48.43414" lon="7.44838">
        <ele>240</ele>
        <time>2022-06-09T15:16:47Z</time>
      </trkpt>
      <trkpt lat="48.43063" lon="7.45049">
        <ele>256</ele>
        <time>2022-06-09T15:17:54Z</time>
      </trkpt>
      <trkpt lat="48.42966" lon="7.45302">
        <ele>262</ele>
        <time>2022-06-09T15:18:28Z</time>
      </trkpt>
      <trkpt lat="48.42843" lon="7.45248">
        <ele>274</ele>
        <time>2022-06-09T15:18:51Z</time>
      </trkpt>
      <trkpt lat="48.42661" lon="7.45067">
        <ele>284</ele>
        <time>2022-06-09T15:19:30Z</time>
      </trkpt>
      <trkpt lat="48.42567" lon="7.45028">
        <ele>280</ele>
        <time>2022-06-09T15:19:47Z</time>
      </trkpt>
      <trkpt lat="48.42415" lon="7.45049">
        <ele>273</ele>
        <time>2022-06-09T15:20:14Z</time>
      </trkpt>
      <trkpt lat="48.42326" lon="7.4507">
        <ele>272</ele>
        <time>2022-06-09T15:20:30Z</time>
      </trkpt>
      <trkpt lat="48.42278" lon="7.45047">
        <ele>270</ele>
        <time>2022-06-09T15:20:39Z</time>
      </trkpt>
      <trkpt lat="48.42214" lon="7.45051">
        <ele>267</ele>
        <time>2022-06-09T15:20:51Z</time>
      </trkpt>
      <trkpt lat="48.41937" lon="7.4512">
        <ele>243</ele>
        <time>2022-06-09T15:21:41Z</time>
      </trkpt>
      <trkpt lat="48.41641" lon="7.45279">
        <ele>227</ele>
        <time>2022-06-09T15:22:37Z</time>
      </trkpt>
      <trkpt lat="48.41208" lon="7.45236">
        <ele>218</ele>
        <time>2022-06-09T15:23:54Z</time>
      </trkpt>
      <trkpt lat="48.41052" lon="7.45203">
        <ele>212</ele>
        <time>2022-06-09T15:24:22Z</time>
      </trkpt>
      <trkpt lat="48.41092" lon="7.45303">
        <ele>210</ele>
        <time>2022-06-09T15:24:36Z</time>
      </trkpt>
      <trkpt lat="48.41047" lon="7.45549">
        <ele>195</ele>
        <time>2022-06-09T15:25:06Z</time>
      </trkpt>
      <trkpt lat="48.40844" lon="7.45358">
        <ele>197</ele>
        <time>2022-06-09T15:25:48Z</time>
      </trkpt>
      <trkpt lat="48.40757" lon="7.4543">
        <ele>201</ele>
        <time>2022-06-09T15:26:06Z</time>
      </trkpt>
      <trkpt lat="48.40661" lon="7.45491">
        <ele>202</ele>
        <time>2022-06-09T15:26:25Z</time>
      </trkpt>
      <trkpt lat="48.40522" lon="7.45591">
        <ele>203</ele>
        <time>2022-06-09T15:26:52Z</time>
      </trkpt>
      <trkpt lat="48.4007" lon="7.45546">
        <ele>204</ele>
        <time>2022-06-09T15:28:13Z</time>
      </trkpt>
      <trkpt lat="48.40016" lon="7.4544">
        <ele>205</ele>
        <time>2022-06-09T15:28:28Z</time>
      </trkpt>
      <trkpt lat="48.39686" lon="7.45088">
        <ele>204</ele>
        <time>2022-06-09T15:29:40Z</time>
      </trkpt>
      <trkpt lat="48.39492" lon="7.4516">
        <ele>201</ele>
        <time>2022-06-09T15:30:16Z</time>
      </trkpt>
      <trkpt lat="48.3923" lon="7.44942">
        <ele>199</ele>
        <time>2022-06-09T15:31:09Z</time>
      </trkpt>
      <trkpt lat="48.3922" lon="7.44845">
        <ele>200</ele>
        <time>2022-06-09T15:31:21Z</time>
      </trkpt>
      <trkpt lat="48.39077" lon="7.44614">
        <ele>200</ele>
        <time>2022-06-09T15:31:58Z</time>
      </trkpt>
      <trkpt lat="48.38783" lon="7.44468">
        <ele>197</ele>
        <time>2022-06-09T15:32:53Z</time>
      </trkpt>
      <trkpt lat="48.38656" lon="7.44344">
        <ele>198</ele>
        <time>2022-06-09T15:33:20Z</time>
      </trkpt>
      <trkpt lat="48.38594" lon="7.44315">
        <ele>201</ele>
        <time>2022-06-09T15:33:32Z</time>
      </trkpt>
      <trkpt lat="48.38418" lon="7.44291">
        <ele>207</ele>
        <time>2022-06-09T15:34:03Z</time>
      </trkpt>
      <trkpt lat="48.38353" lon="7.44146">
        <ele>211</ele>
        <time>2022-06-09T15:34:24Z</time>
      </trkpt>
      <trkpt lat="48.38186" lon="7.4405">
        <ele>214</ele>
        <time>2022-06-09T15:34:56Z</time>
      </trkpt>
      <trkpt lat="48.38133" lon="7.43985">
        <ele>215</ele>
        <time>2022-06-09T15:35:08Z</time>
      </trkpt>
      <trkpt lat="48.37911" lon="7.43988">
        <ele>221</ele>
        <time>2022-06-09T15:35:47Z</time>
      </trkpt>
      <trkpt lat="48.37818" lon="7.43976">
        <ele>225</ele>
        <time>2022-06-09T15:36:04Z</time>
      </trkpt>
      <trkpt lat="48.37588" lon="7.43855">
        <ele>240</ele>
        <time>2022-06-09T15:36:47Z</time>
      </trkpt>
      <trkpt lat="48.37552" lon="7.4383">
        <ele>242</ele>
        <time>2022-06-09T15:36:54Z</time>
      </trkpt>
      <trkpt lat="48.37462" lon="7.43662">
        <ele>247</ele>
        <time>2022-06-09T15:37:20Z</time>
      </trkpt>
      <trkpt lat="48.37139" lon="7.43044">
        <ele>266</ele>
        <time>2022-06-09T15:38:53Z</time>
      </trkpt>
      <trkpt lat="48.36872" lon="7.42604">
        <ele>275</ele>
        <time>2022-06-09T15:40:03Z</time>
      </trkpt>
      <trkpt lat="48.36802" lon="7.42418">
        <ele>269</ele>
        <time>2022-06-09T15:40:28Z</time>
      </trkpt>
      <trkpt lat="48.36731" lon="7.42446">
        <ele>261</ele>
        <time>2022-06-09T15:40:42Z</time>
      </trkpt>
      <trkpt lat="48.36561" lon="7.42566">
        <ele>257</ele>
        <time>2022-06-09T15:41:15Z</time>
      </trkpt>
      <trkpt lat="48.36421" lon="7.4266">
        <ele>254</ele>
        <time>2022-06-09T15:41:42Z</time>
      </trkpt>
      <trkpt lat="48.36395" lon="7.42716">
        <ele>252</ele>
        <time>2022-06-09T15:41:50Z</time>
      </trkpt>
      <trkpt lat="48.36399" lon="7.43117">
        <ele>252</ele>
        <time>2022-06-09T15:42:38Z</time>
      </trkpt>
      <trkpt lat="48.3638" lon="7.43317">
        <ele>247</ele>
        <time>2022-06-09T15:43:02Z</time>
      </trkpt>
      <trkpt lat="48.36351" lon="7.43294">
        <ele>243</ele>
        <time>2022-06-09T15:43:07Z</time>
      </trkpt>
      <trkpt lat="48.36283" lon="7.43016">
        <ele>233</ele>
        <time>2022-06-09T15:43:42Z</time>
      </trkpt>
      <trkpt lat="48.362" lon="7.4304">
        <ele>225</ele>
        <time>2022-06-09T15:43:57Z</time>
      </trkpt>
      <trkpt lat="48.36135" lon="7.43031">
        <ele>221</ele>
        <time>2022-06-09T15:44:09Z</time>
      </trkpt>
      <trkpt lat="48.36088" lon="7.42919">
        <ele>220</ele>
        <time>2022-06-09T15:44:25Z</time>
      </trkpt>
      <trkpt lat="48.36023" lon="7.429">
        <ele>219</ele>
        <time>2022-06-09T15:44:37Z</time>
      </trkpt>
      <trkpt lat="48.35988" lon="7.42865">
        <ele>218</ele>
        <time>2022-06-09T15:44:44Z</time>
      </trkpt>
      <trkpt lat="48.35953" lon="7.42715">
        <ele>219</ele>
        <time>2022-06-09T15:45:03Z</time>
      </trkpt>
      <trkpt lat="48.35906" lon="7.42623">
        <ele>220</ele>
        <time>2022-06-09T15:45:17Z</time>
      </trkpt>
      <trkpt lat="48.3578" lon="7.4257">
        <ele>220</ele>
        <time>2022-06-09T15:45:40Z</time>
      </trkpt>
      <trkpt lat="48.35544" lon="7.42489">
        <ele>219</ele>
        <time>2022-06-09T15:46:23Z</time>
      </trkpt>
      <trkpt lat="48.35595" lon="7.42269">
        <ele>224</ele>
        <time>2022-06-09T15:46:50Z</time>
      </trkpt>
      <trkpt lat="48.35587" lon="7.42081">
        <ele>228</ele>
        <time>2022-06-09T15:47:13Z</time>
      </trkpt>
      <trkpt lat="48.35482" lon="7.41984">
        <ele>231</ele>
        <time>2022-06-09T15:47:35Z</time>
      </trkpt>
      <trkpt lat="48.35288" lon="7.4198">
        <ele>222</ele>
        <time>2022-06-09T15:48:09Z</time>
      </trkpt>
      <trkpt lat="48.35191" lon="7.41951">
        <ele>220</ele>
        <time>2022-06-09T15:48:27Z</time>
      </trkpt>
      <trkpt lat="48.35082" lon="7.41933">
        <ele>219</ele>
        <time>2022-06-09T15:48:46Z</time>
      </trkpt>
      <trkpt lat="48.34961" lon="7.42004">
        <ele>216</ele>
        <time>2022-06-09T15:49:09Z</time>
      </trkpt>
      <trkpt lat="48.34818" lon="7.4204">
        <ele>222</ele>
        <time>2022-06-09T15:49:35Z</time>
      </trkpt>
      <trkpt lat="48.34653" lon="7.42133">
        <ele>217</ele>
        <time>2022-06-09T15:50:06Z</time>
      </trkpt>
      <trkpt lat="48.34504" lon="7.4215">
        <ele>222</ele>
        <time>2022-06-09T15:50:33Z</time>
      </trkpt>
      <trkpt lat="48.343" lon="7.42268">
        <ele>222</ele>
        <time>2022-06-09T15:51:12Z</time>
      </trkpt>
      <trkpt lat="48.34268" lon="7.42161">
        <ele>225</ele>
        <time>2022-06-09T15:51:26Z</time>
      </trkpt>
      <trkpt lat="48.34203" lon="7.42055">
        <ele>229</ele>
        <time>2022-06-09T15:51:43Z</time>
      </trkpt>
      <trkpt lat="48.34157" lon="7.41835">
        <ele>236</ele>
        <time>2022-06-09T15:52:10Z</time>
      </trkpt>
      <trkpt lat="48.34114" lon="7.4185">
        <ele>238</ele>
        <time>2022-06-09T15:52:18Z</time>
      </trkpt>
      <trkpt lat="48.34102" lon="7.41895">
        <ele>238</ele>
        <time>2022-06-09T15:52:24Z</time>
      </trkpt>
      <trkpt lat="48.34056" lon="7.41966">
        <ele>236</ele>
        <time>2022-06-09T15:52:35Z</time>
      </trkpt>
      <trkpt lat="48.33963" lon="7.41977">
        <ele>235</ele>
        <time>2022-06-09T15:52:52Z</time>
      </trkpt>
      <trkpt lat="48.33872" lon="7.41938">
        <ele>238</ele>
        <time>2022-06-09T15:53:09Z</time>
      </trkpt>
      <trkpt lat="48.33765" lon="7.42011">
        <ele>237</ele>
        <time>2022-06-09T15:53:30Z</time>
      </trkpt>
      <trkpt lat="48.33748" lon="7.42285">
        <ele>233</ele>
        <time>2022-06-09T15:54:02Z</time>
      </trkpt>
      <trkpt lat="48.33687" lon="7.42631">
        <ele>223</ele>
        <time>2022-06-09T15:54:45Z</time>
      </trkpt>
      <trkpt lat="48.3361" lon="7.42701">
        <ele>227</ele>
        <time>2022-06-09T15:55:01Z</time>
      </trkpt>
      <trkpt lat="48.33268" lon="7.42669">
        <ele>227</ele>
        <time>2022-06-09T15:56:02Z</time>
      </trkpt>
      <trkpt lat="48.33173" lon="7.42628">
        <ele>228</ele>
        <time>2022-06-09T15:56:19Z</time>
      </trkpt>
      <trkpt lat="48.33037" lon="7.42535">
        <ele>228</ele>
        <time>2022-06-09T15:56:46Z</time>
      </trkpt>
      <trkpt lat="48.3292" lon="7.42434">
        <ele>227</ele>
        <time>2022-06-09T15:57:10Z</time>
      </trkpt>
      <trkpt lat="48.32809" lon="7.42384">
        <ele>225</ele>
        <time>2022-06-09T15:57:30Z</time>
      </trkpt>
      <trkpt lat="48.32717" lon="7.42339">
        <ele>224</ele>
        <time>2022-06-09T15:57:48Z</time>
      </trkpt>
      <trkpt lat="48.32605" lon="7.42404">
        <ele>219</ele>
        <time>2022-06-09T15:58:09Z</time>
      </trkpt>
      <trkpt lat="48.32564" lon="7.42457">
        <ele>217</ele>
        <time>2022-06-09T15:58:19Z</time>
      </trkpt>
      <trkpt lat="48.3252" lon="7.42589">
        <ele>212</ele>
        <time>2022-06-09T15:58:36Z</time>
      </trkpt>
      <trkpt lat="48.32436" lon="7.42687">
        <ele>209</ele>
        <time>2022-06-09T15:58:55Z</time>
      </trkpt>
      <trkpt lat="48.3238" lon="7.42689">
        <ele>210</ele>
        <time>2022-06-09T15:59:05Z</time>
      </trkpt>
      <trkpt lat="48.32347" lon="7.4285">
        <ele>205</ele>
        <time>2022-06-09T15:59:25Z</time>
      </trkpt>
      <trkpt lat="48.31839" lon="7.42772">
        <ele>195</ele>
        <time>2022-06-09T16:00:56Z</time>
      </trkpt>
      <trkpt lat="48.31745" lon="7.42515">
        <ele>197</ele>
        <time>2022-06-09T16:01:31Z</time>
      </trkpt>
      <trkpt lat="48.31354" lon="7.4233">
        <ele>197</ele>
        <time>2022-06-09T16:02:43Z</time>
      </trkpt>
      <trkpt lat="48.31217" lon="7.42326">
        <ele>195</ele>
        <time>2022-06-09T16:03:08Z</time>
      </trkpt>
      <trkpt lat="48.30929" lon="7.42197">
        <ele>196</ele>
        <time>2022-06-09T16:04:01Z</time>
      </trkpt>
      <trkpt lat="48.30715" lon="7.42275">
        <ele>189</ele>
        <time>2022-06-09T16:04:40Z</time>
      </trkpt>
      <trkpt lat="48.30129" lon="7.42296">
        <ele>184</ele>
        <time>2022-06-09T16:06:25Z</time>
      </trkpt>
      <trkpt lat="48.29738" lon="7.42257">
        <ele>182</ele>
        <time>2022-06-09T16:07:35Z</time>
      </trkpt>
      <trkpt lat="48.2925" lon="7.42433">
        <ele>180</ele>
        <time>2022-06-09T16:09:04Z</time>
      </trkpt>
      <trkpt lat="48.29119" lon="7.42297">
        <ele>182</ele>
        <time>2022-06-09T16:09:32Z</time>
      </trkpt>
      <trkpt lat="48.28748" lon="7.42097">
        <ele>186</ele>
        <time>2022-06-09T16:10:42Z</time>
      </trkpt>
      <trkpt lat="48.28715" lon="7.41731">
        <ele>187</ele>
        <time>2022-06-09T16:11:26Z</time>
      </trkpt>
      <trkpt lat="48.28853" lon="7.40879">
        <ele>190</ele>
        <time>2022-06-09T16:13:10Z</time>
      </trkpt>
      <trkpt lat="48.28852" lon="7.40585">
        <ele>190</ele>
        <time>2022-06-09T16:13:45Z</time>
      </trkpt>
      <trkpt lat="48.28782" lon="7.40274">
        <ele>190</ele>
        <time>2022-06-09T16:14:23Z</time>
      </trkpt>
      <trkpt lat="48.28156" lon="7.40229">
        <ele>192</ele>
        <time>2022-06-09T16:16:15Z</time>
      </trkpt>
      <trkpt lat="48.27851" lon="7.40198">
        <ele>192</ele>
        <time>2022-06-09T16:17:09Z</time>
      </trkpt>
      <trkpt lat="48.27629" lon="7.40076">
        <ele>191</ele>
        <time>2022-06-09T16:17:51Z</time>
      </trkpt>
      <trkpt lat="48.27804" lon="7.39542">
        <ele>196</ele>
        <time>2022-06-09T16:19:02Z</time>
      </trkpt>
      <trkpt lat="48.27878" lon="7.39224">
        <ele>200</ele>
        <time>2022-06-09T16:19:42Z</time>
      </trkpt>
      <trkpt lat="48.28208" lon="7.38598">
        <ele>200</ele>
        <time>2022-06-09T16:21:16Z</time>
      </trkpt>
      <trkpt lat="48.28266" lon="7.38402">
        <ele>200</ele>
        <time>2022-06-09T16:21:42Z</time>
      </trkpt>
      <trkpt lat="48.28279" lon="7.38285">
        <ele>200</ele>
        <time>2022-06-09T16:21:56Z</time>
      </trkpt>
      <trkpt lat="48.28394" lon="7.38227">
        <ele>200</ele>
        <time>2022-06-09T16:22:17Z</time>
      </trkpt>
      <trkpt lat="48.28401" lon="7.38179">
        <ele>201</ele>
        <time>2022-06-09T16:22:23Z</time>
      </trkpt>
      <trkpt lat="48.28418" lon="7.37811">
        <ele>202</ele>
        <time>2022-06-09T16:23:07Z</time>
      </trkpt>
      <trkpt lat="48.28406" lon="7.37616">
        <ele>205</ele>
        <time>2022-06-09T16:23:30Z</time>
      </trkpt>
      <trkpt lat="48.28284" lon="7.36726">
        <ele>215</ele>
        <time>2022-06-09T16:25:18Z</time>
      </trkpt>
      <trkpt lat="48.28355" lon="7.36686">
        <ele>212</ele>
        <time>2022-06-09T16:25:31Z</time>
      </trkpt>
      <trkpt lat="48.28279" lon="7.36601">
        <ele>216</ele>
        <time>2022-06-09T16:25:48Z</time>
      </trkpt>
      <trkpt lat="48.28197" lon="7.36045">
        <ele>218</ele>
        <time>2022-06-09T16:26:55Z</time>
      </trkpt>
      <trkpt lat="48.28126" lon="7.35777">
        <ele>217</ele>
        <time>2022-06-09T16:27:30Z</time>
      </trkpt>
      <trkpt lat="48.27892" lon="7.35132">
        <ele>223</ele>
        <time>2022-06-09T16:28:57Z</time>
      </trkpt>
      <trkpt lat="48.27905" lon="7.34755">
        <ele>225</ele>
        <time>2022-06-09T16:29:41Z</time>
      </trkpt>
      <trkpt lat="48.27893" lon="7.34645">
        <ele>224</ele>
        <time>2022-06-09T16:29:54Z</time>
      </trkpt>
      <trkpt lat="48.27855" lon="7.34585">
        <ele>224</ele>
        <time>2022-06-09T16:30:04Z</time>
      </trkpt>
      <trkpt lat="48.27812" lon="7.34486">
        <ele>225</ele>
        <time>2022-06-09T16:30:18Z</time>
      </trkpt>
      <trkpt lat="48.27912" lon="7.34372">
        <ele>227</ele>
        <time>2022-06-09T16:30:41Z</time>
      </trkpt>
      <trkpt lat="48.27904" lon="7.34309">
        <ele>229</ele>
        <time>2022-06-09T16:30:48Z</time>
      </trkpt>
      <trkpt lat="48.27889" lon="7.3408">
        <ele>235</ele>
        <time>2022-06-09T16:31:15Z</time>
      </trkpt>
      <trkpt lat="48.27842" lon="7.3393">
        <ele>244</ele>
        <time>2022-06-09T16:31:35Z</time>
      </trkpt>
      <trkpt lat="48.27779" lon="7.33822">
        <ele>248</ele>
        <time>2022-06-09T16:31:52Z</time>
      </trkpt>
      <trkpt lat="48.27739" lon="7.33733">
        <ele>249</ele>
        <time>2022-06-09T16:32:05Z</time>
      </trkpt>
      <trkpt lat="48.27679" lon="7.33663">
        <ele>245</ele>
        <time>2022-06-09T16:32:18Z</time>
      </trkpt>
      <trkpt lat="48.27671" lon="7.33616">
        <ele>248</ele>
        <time>2022-06-09T16:32:24Z</time>
      </trkpt>
      <trkpt lat="48.27627" lon="7.33637">
        <ele>241</ele>
        <time>2022-06-09T16:32:32Z</time>
      </trkpt>
      <trkpt lat="48.27512" lon="7.33477">
        <ele>243</ele>
        <time>2022-06-09T16:33:00Z</time>
      </trkpt>
      <trkpt lat="48.27423" lon="7.33421">
        <ele>239</ele>
        <time>2022-06-09T16:33:17Z</time>
      </trkpt>
      <trkpt lat="48.27387" lon="7.33293">
        <ele>243</ele>
        <time>2022-06-09T16:33:34Z</time>
      </trkpt>
      <trkpt lat="48.27338" lon="7.33134">
        <ele>240</ele>
        <time>2022-06-09T16:33:55Z</time>
      </trkpt>
      <trkpt lat="48.27327" lon="7.33064">
        <ele>242</ele>
        <time>2022-06-09T16:34:03Z</time>
      </trkpt>
      <trkpt lat="48.27326" lon="7.32933">
        <ele>242</ele>
        <time>2022-06-09T16:34:19Z</time>
      </trkpt>
      <trkpt lat="48.27275" lon="7.3275">
        <ele>245</ele>
        <time>2022-06-09T16:34:42Z</time>
      </trkpt>
      <trkpt lat="48.27255" lon="7.32598">
        <ele>247</ele>
        <time>2022-06-09T16:35:00Z</time>
      </trkpt>
      <trkpt lat="48.27253" lon="7.32445">
        <ele>251</ele>
        <time>2022-06-09T16:35:19Z</time>
      </trkpt>
      <trkpt lat="48.27235" lon="7.32378">
        <ele>252</ele>
        <time>2022-06-09T16:35:27Z</time>
      </trkpt>
      <trkpt lat="48.2722" lon="7.32307">
        <ele>254</ele>
        <time>2022-06-09T16:35:36Z</time>
      </trkpt>
      <trkpt lat="48.27222" lon="7.32195">
        <ele>260</ele>
        <time>2022-06-09T16:35:49Z</time>
      </trkpt>
      <trkpt lat="48.27208" lon="7.32118">
        <ele>259</ele>
        <time>2022-06-09T16:35:59Z</time>
      </trkpt>
      <trkpt lat="48.27192" lon="7.32089">
        <ele>255</ele>
        <time>2022-06-09T16:36:03Z</time>
      </trkpt>
      <trkpt lat="48.2716" lon="7.32105">
        <ele>245</ele>
        <time>2022-06-09T16:36:09Z</time>
      </trkpt>
      <trkpt lat="48.27176" lon="7.32158">
        <ele>246</ele>
        <time>2022-06-09T16:36:16Z</time>
      </trkpt>
      <trkpt lat="48.27089" lon="7.32201">
        <ele>241</ele>
        <time>2022-06-09T16:36:32Z</time>
      </trkpt>
      <trkpt lat="48.2704" lon="7.31964">
        <ele>241</ele>
        <time>2022-06-09T16:37:02Z</time>
      </trkpt>
      <trkpt lat="48.26945" lon="7.31979">
        <ele>242</ele>
        <time>2022-06-09T16:37:19Z</time>
      </trkpt>
      <trkpt lat="48.26955" lon="7.29659">
        <ele>260</ele>
        <time>2022-06-09T16:41:53Z</time>
      </trkpt>
      <trkpt lat="48.27044" lon="7.29187">
        <ele>262</ele>
        <time>2022-06-09T16:42:52Z</time>
      </trkpt>
      <trkpt lat="48.27258" lon="7.28286">
        <ele>270</ele>
        <time>2022-06-09T16:44:45Z</time>
      </trkpt>
      <trkpt lat="48.27259" lon="7.28171">
        <ele>270</ele>
        <time>2022-06-09T16:44:58Z</time>
      </trkpt>
      <trkpt lat="48.27244" lon="7.28081">
        <ele>271</ele>
        <time>2022-06-09T16:45:09Z</time>
      </trkpt>
      <trkpt lat="48.27187" lon="7.27892">
        <ele>272</ele>
        <time>2022-06-09T16:45:34Z</time>
      </trkpt>
      <trkpt lat="48.27185" lon="7.27878">
        <ele>273</ele>
        <time>2022-06-09T16:45:36Z</time>
      </trkpt>
      <trkpt lat="48.27086" lon="7.27573">
        <ele>273</ele>
        <time>2022-06-09T16:46:16Z</time>
      </trkpt>
      <trkpt lat="48.27068" lon="7.27568">
        <ele>273</ele>
        <time>2022-06-09T16:46:19Z</time>
      </trkpt>
      <trkpt lat="48.27063" lon="7.27541">
        <ele>273</ele>
        <time>2022-06-09T16:46:23Z</time>
      </trkpt>
      <trkpt lat="48.27038" lon="7.27541">
        <ele>274</ele>
        <time>2022-06-09T16:46:27Z</time>
      </trkpt>
      <trkpt lat="48.27035" lon="7.27472">
        <ele>273</ele>
        <time>2022-06-09T16:46:35Z</time>
      </trkpt>
      <trkpt lat="48.26954" lon="7.26888">
        <ele>281</ele>
        <time>2022-06-09T16:47:46Z</time>
      </trkpt>
      <trkpt lat="48.26937" lon="7.2673">
        <ele>282</ele>
        <time>2022-06-09T16:48:05Z</time>
      </trkpt>
      <trkpt lat="48.26922" lon="7.26147">
        <ele>286</ele>
        <time>2022-06-09T16:49:14Z</time>
      </trkpt>
      <trkpt lat="48.26898" lon="7.26012">
        <ele>288</ele>
        <time>2022-06-09T16:49:30Z</time>
      </trkpt>
      <trkpt lat="48.26863" lon="7.25892">
        <ele>287</ele>
        <time>2022-06-09T16:49:46Z</time>
      </trkpt>
      <trkpt lat="48.2646" lon="7.24859">
        <ele>299</ele>
        <time>2022-06-09T16:52:08Z</time>
      </trkpt>
      <trkpt lat="48.26433" lon="7.24719">
        <ele>299</ele>
        <time>2022-06-09T16:52:25Z</time>
      </trkpt>
      <trkpt lat="48.26426" lon="7.24612">
        <ele>300</ele>
        <time>2022-06-09T16:52:38Z</time>
      </trkpt>
      <trkpt lat="48.2647" lon="7.23929">
        <ele>310</ele>
        <time>2022-06-09T16:53:59Z</time>
      </trkpt>
      <trkpt lat="48.26468" lon="7.23804">
        <ele>310</ele>
        <time>2022-06-09T16:54:14Z</time>
      </trkpt>
      <trkpt lat="48.26432" lon="7.23636">
        <ele>312</ele>
        <time>2022-06-09T16:54:35Z</time>
      </trkpt>
      <trkpt lat="48.26384" lon="7.2351">
        <ele>314</ele>
        <time>2022-06-09T16:54:52Z</time>
      </trkpt>
      <trkpt lat="48.26246" lon="7.23253">
        <ele>316</ele>
        <time>2022-06-09T16:55:31Z</time>
      </trkpt>
      <trkpt lat="48.26184" lon="7.23078">
        <ele>318</ele>
        <time>2022-06-09T16:55:55Z</time>
      </trkpt>
      <trkpt lat="48.2595" lon="7.22134">
        <ele>331</ele>
        <time>2022-06-09T16:57:54Z</time>
      </trkpt>
      <trkpt lat="48.25901" lon="7.22017">
        <ele>330</ele>
        <time>2022-06-09T16:58:10Z</time>
      </trkpt>
      <trkpt lat="48.25916" lon="7.22001">
        <ele>329</ele>
        <time>2022-06-09T16:58:13Z</time>
      </trkpt>
      <trkpt lat="48.2591" lon="7.21913">
        <ele>327</ele>
        <time>2022-06-09T16:58:24Z</time>
      </trkpt>
      <trkpt lat="48.25886" lon="7.21871">
        <ele>328</ele>
        <time>2022-06-09T16:58:31Z</time>
      </trkpt>
      <trkpt lat="48.25933" lon="7.21828">
        <ele>326</ele>
        <time>2022-06-09T16:58:40Z</time>
      </trkpt>
      <trkpt lat="48.25977" lon="7.21782">
        <ele>331</ele>
        <time>2022-06-09T16:58:50Z</time>
      </trkpt>
      <trkpt lat="48.25874" lon="7.2162">
        <ele>340</ele>
        <time>2022-06-09T16:59:16Z</time>
      </trkpt>
      <trkpt lat="48.25823" lon="7.21402">
        <ele>345</ele>
        <time>2022-06-09T16:59:44Z</time>
      </trkpt>
      <trkpt lat="48.25686" lon="7.2094">
        <ele>352</ele>
        <time>2022-06-09T17:00:44Z</time>
      </trkpt>
      <trkpt lat="48.25642" lon="7.20683">
        <ele>354</ele>
        <time>2022-06-09T17:01:15Z</time>
      </trkpt>
      <trkpt lat="48.25588" lon="7.20409">
        <ele>354</ele>
        <time>2022-06-09T17:01:49Z</time>
      </trkpt>
      <trkpt lat="48.25503" lon="7.20325">
        <ele>344</ele>
        <time>2022-06-09T17:02:07Z</time>
      </trkpt>
      <trkpt lat="48.25465" lon="7.20122">
        <ele>347</ele>
        <time>2022-06-09T17:02:32Z</time>
      </trkpt>
      <trkpt lat="48.2542" lon="7.20058">
        <ele>347</ele>
        <time>2022-06-09T17:02:43Z</time>
      </trkpt>
      <trkpt lat="48.25346" lon="7.1977">
        <ele>355</ele>
        <time>2022-06-09T17:03:20Z</time>
      </trkpt>
      <trkpt lat="48.25284" lon="7.19642">
        <ele>359</ele>
        <time>2022-06-09T17:03:38Z</time>
      </trkpt>
      <trkpt lat="48.25256" lon="7.19603">
        <ele>360</ele>
        <time>2022-06-09T17:03:45Z</time>
      </trkpt>
      <trkpt lat="48.25064" lon="7.19113">
        <ele>361</ele>
        <time>2022-06-09T17:04:53Z</time>
      </trkpt>
      <trkpt lat="48.24881" lon="7.18958">
        <ele>366</ele>
        <time>2022-06-09T17:05:30Z</time>
      </trkpt>
      <trkpt lat="48.24914" lon="7.1885">
        <ele>367</ele>
        <time>2022-06-09T17:05:44Z</time>
      </trkpt>
      <trkpt lat="48.2484" lon="7.18767">
        <ele>367</ele>
        <time>2022-06-09T17:06:00Z</time>
      </trkpt>
      <trkpt lat="48.24861" lon="7.18703">
        <ele>368</ele>
        <time>2022-06-09T17:06:09Z</time>
      </trkpt>
      <trkpt lat="48.24857" lon="7.18606">
        <ele>372</ele>
        <time>2022-06-09T17:06:20Z</time>
      </trkpt>
      <trkpt lat="48.24881" lon="7.18538">
        <ele>378</ele>
        <time>2022-06-09T17:06:30Z</time>
      </trkpt>
      <trkpt lat="48.24879" lon="7.18476">
        <ele>380</ele>
        <time>2022-06-09T17:06:37Z</time>
      </trkpt>
      <trkpt lat="48.24843" lon="7.18386">
        <ele>379</ele>
        <time>2022-06-09T17:06:49Z</time>
      </trkpt>
      <trkpt lat="48.24705" lon="7.18169">
        <ele>385</ele>
        <time>2022-06-09T17:07:25Z</time>
      </trkpt>
      <trkpt lat="48.24607" lon="7.18068">
        <ele>388</ele>
        <time>2022-06-09T17:07:46Z</time>
      </trkpt>
      <trkpt lat="48.24527" lon="7.17996">
        <ele>390</ele>
        <time>2022-06-09T17:08:03Z</time>
      </trkpt>
      <trkpt lat="48.24487" lon="7.17983">
        <ele>386</ele>
        <time>2022-06-09T17:08:10Z</time>
      </trkpt>
      <trkpt lat="48.24392" lon="7.18019">
        <ele>383</ele>
        <time>2022-06-09T17:08:27Z</time>
      </trkpt>
      <trkpt lat="48.24287" lon="7.17979">
        <ele>383</ele>
        <time>2022-06-09T17:08:47Z</time>
      </trkpt>
      <trkpt lat="48.24196" lon="7.17993">
        <ele>384</ele>
        <time>2022-06-09T17:09:03Z</time>
      </trkpt>
      <trkpt lat="48.24128" lon="7.1796">
        <ele>385</ele>
        <time>2022-06-09T17:09:16Z</time>
      </trkpt>
      <trkpt lat="48.24087" lon="7.17893">
        <ele>387</ele>
        <time>2022-06-09T17:09:26Z</time>
      </trkpt>
      <trkpt lat="48.239" lon="7.177">
        <ele>392</ele>
        <time>2022-06-09T17:10:07Z</time>
      </trkpt>
      <trkpt lat="48.23871" lon="7.17542">
        <ele>408</ele>
        <time>2022-06-09T17:10:26Z</time>
      </trkpt>
      <trkpt lat="48.2373" lon="7.17196">
        <ele>421</ele>
        <time>2022-06-09T17:11:14Z</time>
      </trkpt>
      <trkpt lat="48.23688" lon="7.16986">
        <ele>425</ele>
        <time>2022-06-09T17:11:40Z</time>
      </trkpt>
      <trkpt lat="48.2363" lon="7.16787">
        <ele>428</ele>
        <time>2022-06-09T17:12:06Z</time>
      </trkpt>
      <trkpt lat="48.23607" lon="7.16629">
        <ele>431</ele>
        <time>2022-06-09T17:12:25Z</time>
      </trkpt>
      <trkpt lat="48.23575" lon="7.16515">
        <ele>426</ele>
        <time>2022-06-09T17:12:40Z</time>
      </trkpt>
      <trkpt lat="48.23537" lon="7.16353">
        <ele>437</ele>
        <time>2022-06-09T17:13:00Z</time>
      </trkpt>
      <trkpt lat="48.23455" lon="7.16283">
        <ele>424</ele>
        <time>2022-06-09T17:13:17Z</time>
      </trkpt>
      <trkpt lat="48.23367" lon="7.16192">
        <ele>425</ele>
        <time>2022-06-09T17:13:36Z</time>
      </trkpt>
      <trkpt lat="48.23182" lon="7.16108">
        <ele>431</ele>
        <time>2022-06-09T17:14:10Z</time>
      </trkpt>
      <trkpt lat="48.2309" lon="7.1609">
        <ele>428</ele>
        <time>2022-06-09T17:14:27Z</time>
      </trkpt>
      <trkpt lat="48.23" lon="7.15964">
        <ele>432</ele>
        <time>2022-06-09T17:14:49Z</time>
      </trkpt>
      <trkpt lat="48.22991" lon="7.15876">
        <ele>436</ele>
        <time>2022-06-09T17:14:59Z</time>
      </trkpt>
      <trkpt lat="48.22949" lon="7.15595">
        <ele>453</ele>
        <time>2022-06-09T17:15:33Z</time>
      </trkpt>
      <trkpt lat="48.22882" lon="7.15431">
        <ele>452</ele>
        <time>2022-06-09T17:15:56Z</time>
      </trkpt>
      <trkpt lat="48.22736" lon="7.15244">
        <ele>452</ele>
        <time>2022-06-09T17:16:30Z</time>
      </trkpt>
      <trkpt lat="48.22614" lon="7.15079">
        <ele>460</ele>
        <time>2022-06-09T17:17:00Z</time>
      </trkpt>
      <trkpt lat="48.2239" lon="7.14891">
        <ele>471</ele>
        <time>2022-06-09T17:17:45Z</time>
      </trkpt>
      <trkpt lat="48.22354" lon="7.14788">
        <ele>469</ele>
        <time>2022-06-09T17:17:59Z</time>
      </trkpt>
      <trkpt lat="48.22299" lon="7.14692">
        <ele>472</ele>
        <time>2022-06-09T17:18:14Z</time>
      </trkpt>
      <trkpt lat="48.22233" lon="7.14665">
        <ele>472</ele>
        <time>2022-06-09T17:18:26Z</time>
      </trkpt>
      <trkpt lat="48.22155" lon="7.1453">
        <ele>480</ele>
        <time>2022-06-09T17:18:47Z</time>
      </trkpt>
      <trkpt lat="48.22009" lon="7.14433">
        <ele>486</ele>
        <time>2022-06-09T17:19:16Z</time>
      </trkpt>
      <trkpt lat="48.21947" lon="7.1442">
        <ele>492</ele>
        <time>2022-06-09T17:19:27Z</time>
      </trkpt>
      <trkpt lat="48.21878" lon="7.14313">
        <ele>497</ele>
        <time>2022-06-09T17:19:45Z</time>
      </trkpt>
      <trkpt lat="48.2181" lon="7.14267">
        <ele>498</ele>
        <time>2022-06-09T17:19:58Z</time>
      </trkpt>
      <trkpt lat="48.21699" lon="7.14088">
        <ele>502</ele>
        <time>2022-06-09T17:20:27Z</time>
      </trkpt>
      <trkpt lat="48.21628" lon="7.14073">
        <ele>507</ele>
        <time>2022-06-09T17:20:40Z</time>
      </trkpt>
      <trkpt lat="48.21543" lon="7.14023">
        <ele>519</ele>
        <time>2022-06-09T17:20:56Z</time>
      </trkpt>
      <trkpt lat="48.21507" lon="7.13977">
        <ele>522</ele>
        <time>2022-06-09T17:21:04Z</time>
      </trkpt>
      <trkpt lat="48.21444" lon="7.13813">
        <ele>524</ele>
        <time>2022-06-09T17:21:27Z</time>
      </trkpt>
      <trkpt lat="48.21383" lon="7.1372">
        <ele>530</ele>
        <time>2022-06-09T17:21:42Z</time>
      </trkpt>
      <trkpt lat="48.21375" lon="7.13618">
        <ele>530</ele>
        <time>2022-06-09T17:21:54Z</time>
      </trkpt>
      <trkpt lat="48.21315" lon="7.13542">
        <ele>533</ele>
        <time>2022-06-09T17:22:08Z</time>
      </trkpt>
      <trkpt lat="48.21258" lon="7.135">
        <ele>538</ele>
        <time>2022-06-09T17:22:20Z</time>
      </trkpt>
      <trkpt lat="48.21222" lon="7.13456">
        <ele>543</ele>
        <time>2022-06-09T17:22:28Z</time>
      </trkpt>
      <trkpt lat="48.2115" lon="7.13387">
        <ele>546</ele>
        <time>2022-06-09T17:22:43Z</time>
      </trkpt>
      <trkpt lat="48.21035" lon="7.13388">
        <ele>565</ele>
        <time>2022-06-09T17:23:04Z</time>
      </trkpt>
      <trkpt lat="48.20887" lon="7.13226">
        <ele>576</ele>
        <time>2022-06-09T17:23:36Z</time>
      </trkpt>
      <trkpt lat="48.20863" lon="7.13095">
        <ele>567</ele>
        <time>2022-06-09T17:23:52Z</time>
      </trkpt>
      <trkpt lat="48.20835" lon="7.13023">
        <ele>564</ele>
        <time>2022-06-09T17:24:02Z</time>
      </trkpt>
      <trkpt lat="48.20683" lon="7.12838">
        <ele>578</ele>
        <time>2022-06-09T17:24:37Z</time>
      </trkpt>
      <trkpt lat="48.20543" lon="7.12681">
        <ele>593</ele>
        <time>2022-06-09T17:25:08Z</time>
      </trkpt>
      <trkpt lat="48.20446" lon="7.12532">
        <ele>612</ele>
        <time>2022-06-09T17:25:33Z</time>
      </trkpt>
      <trkpt lat="48.2039" lon="7.12495">
        <ele>610</ele>
        <time>2022-06-09T17:25:44Z</time>
      </trkpt>
      <trkpt lat="48.20344" lon="7.12413">
        <ele>624</ele>
        <time>2022-06-09T17:25:56Z</time>
      </trkpt>
      <trkpt lat="48.20093" lon="7.12235">
        <ele>635</ele>
        <time>2022-06-09T17:26:46Z</time>
      </trkpt>
      <trkpt lat="48.20061" lon="7.1218">
        <ele>647</ele>
        <time>2022-06-09T17:26:54Z</time>
      </trkpt>
      <trkpt lat="48.20011" lon="7.12163">
        <ele>652</ele>
        <time>2022-06-09T17:27:04Z</time>
      </trkpt>
      <trkpt lat="48.19992" lon="7.12222">
        <ele>660</ele>
        <time>2022-06-09T17:27:11Z</time>
      </trkpt>
      <trkpt lat="48.20021" lon="7.1227">
        <ele>657</ele>
        <time>2022-06-09T17:27:19Z</time>
      </trkpt>
      <trkpt lat="48.20091" lon="7.12434">
        <ele>670</ele>
        <time>2022-06-09T17:27:42Z</time>
      </trkpt>
      <trkpt lat="48.20142" lon="7.12565">
        <ele>672</ele>
        <time>2022-06-09T17:28:00Z</time>
      </trkpt>
      <trkpt lat="48.20092" lon="7.12638">
        <ele>699</ele>
        <time>2022-06-09T17:28:13Z</time>
      </trkpt>
      <trkpt lat="48.20118" lon="7.12763">
        <ele>696</ele>
        <time>2022-06-09T17:28:28Z</time>
      </trkpt>
      <trkpt lat="48.20087" lon="7.12857">
        <ele>712</ele>
        <time>2022-06-09T17:28:40Z</time>
      </trkpt>
      <trkpt lat="48.20107" lon="7.12892">
        <ele>715</ele>
        <time>2022-06-09T17:28:46Z</time>
      </trkpt>
      <trkpt lat="48.20194" lon="7.1282">
        <ele>694</ele>
        <time>2022-06-09T17:29:04Z</time>
      </trkpt>
      <trkpt lat="48.20231" lon="7.12814">
        <ele>693</ele>
        <time>2022-06-09T17:29:10Z</time>
      </trkpt>
      <trkpt lat="48.20295" lon="7.12961">
        <ele>701</ele>
        <time>2022-06-09T17:29:31Z</time>
      </trkpt>
      <trkpt lat="48.2029" lon="7.1304">
        <ele>719</ele>
        <time>2022-06-09T17:29:40Z</time>
      </trkpt>
      <trkpt lat="48.20304" lon="7.13105">
        <ele>731</ele>
        <time>2022-06-09T17:29:49Z</time>
      </trkpt>
      <trkpt lat="48.20333" lon="7.13146">
        <ele>733</ele>
        <time>2022-06-09T17:29:56Z</time>
      </trkpt>
      <trkpt lat="48.20397" lon="7.1316">
        <ele>722</ele>
        <time>2022-06-09T17:30:07Z</time>
      </trkpt>
      <trkpt lat="48.20529" lon="7.13337">
        <ele>746</ele>
        <time>2022-06-09T17:30:39Z</time>
      </trkpt>
      <trkpt lat="48.2062" lon="7.13519">
        <ele>746</ele>
        <time>2022-06-09T17:31:06Z</time>
      </trkpt>
      <trkpt lat="48.20605" lon="7.13542">
        <ele>749</ele>
        <time>2022-06-09T17:31:09Z</time>
      </trkpt>
      <trkpt lat="48.20518" lon="7.13385">
        <ele>761</ele>
        <time>2022-06-09T17:31:34Z</time>
      </trkpt>
      <trkpt lat="48.20237" lon="7.13198">
        <ele>789</ele>
        <time>2022-06-09T17:32:28Z</time>
      </trkpt>
      <trkpt lat="48.20153" lon="7.13111">
        <ele>786</ele>
        <time>2022-06-09T17:32:47Z</time>
      </trkpt>
      <trkpt lat="48.20057" lon="7.13119">
        <ele>791</ele>
        <time>2022-06-09T17:33:04Z</time>
      </trkpt>
      <trkpt lat="48.19884" lon="7.1325">
        <ele>832</ele>
        <time>2022-06-09T17:33:38Z</time>
      </trkpt>
      <trkpt lat="48.19872" lon="7.1316">
        <ele>828</ele>
        <time>2022-06-09T17:33:49Z</time>
      </trkpt>
      <trkpt lat="48.1988" lon="7.12961">
        <ele>823</ele>
        <time>2022-06-09T17:34:13Z</time>
      </trkpt>
      <trkpt lat="48.1986" lon="7.12881">
        <ele>820</ele>
        <time>2022-06-09T17:34:23Z</time>
      </trkpt>
      <trkpt lat="48.19733" lon="7.12838">
        <ele>850</ele>
        <time>2022-06-09T17:34:46Z</time>
      </trkpt>
      <trkpt lat="48.19733" lon="7.12585">
        <ele>838</ele>
        <time>2022-06-09T17:35:16Z</time>
      </trkpt>
      <trkpt lat="48.19621" lon="7.12517">
        <ele>855</ele>
        <time>2022-06-09T17:35:37Z</time>
      </trkpt>
      <trkpt lat="48.19491" lon="7.124">
        <ele>878</ele>
        <time>2022-06-09T17:36:04Z</time>
      </trkpt>
      <trkpt lat="48.19537" lon="7.12259">
        <ele>859</ele>
        <time>2022-06-09T17:36:23Z</time>
      </trkpt>
      <trkpt lat="48.19509" lon="7.12101">
        <ele>883</ele>
        <time>2022-06-09T17:36:42Z</time>
      </trkpt>
      <trkpt lat="48.19468" lon="7.11951">
        <ele>890</ele>
        <time>2022-06-09T17:37:02Z</time>
      </trkpt>
      <trkpt lat="48.19455" lon="7.11889">
        <ele>887</ele>
        <time>2022-06-09T17:37:09Z</time>
      </trkpt>
      <trkpt lat="48.19407" lon="7.11792">
        <ele>893</ele>
        <time>2022-06-09T17:37:24Z</time>
      </trkpt>
      <trkpt lat="48.19358" lon="7.11745">
        <ele>903</ele>
        <time>2022-06-09T17:37:34Z</time>
      </trkpt>
      <trkpt lat="48.19308" lon="7.11498">
        <ele>898</ele>
        <time>2022-06-09T17:38:05Z</time>
      </trkpt>
      <trkpt lat="48.19246" lon="7.11388">
        <ele>905</ele>
        <time>2022-06-09T17:38:22Z</time>
      </trkpt>
      <trkpt lat="48.19259" lon="7.11289">
        <ele>910</ele>
        <time>2022-06-09T17:38:34Z</time>
      </trkpt>
      <trkpt lat="48.1923" lon="7.11118">
        <ele>927</ele>
        <time>2022-06-09T17:38:55Z</time>
      </trkpt>
      <trkpt lat="48.19221" lon="7.11007">
        <ele>940</ele>
        <time>2022-06-09T17:39:08Z</time>
      </trkpt>
      <trkpt lat="48.19176" lon="7.10933">
        <ele>930</ele>
        <time>2022-06-09T17:39:20Z</time>
      </trkpt>
      <trkpt lat="48.1916" lon="7.10885">
        <ele>931</ele>
        <time>2022-06-09T17:39:26Z</time>
      </trkpt>
      <trkpt lat="48.19184" lon="7.10878">
        <ele>945</ele>
        <time>2022-06-09T17:39:31Z</time>
      </trkpt>
      <trkpt lat="48.19248" lon="7.11007">
        <ele>955</ele>
        <time>2022-06-09T17:39:50Z</time>
      </trkpt>
      <trkpt lat="48.19278" lon="7.11115">
        <ele>951</ele>
        <time>2022-06-09T17:40:03Z</time>
      </trkpt>
      <trkpt lat="48.19309" lon="7.11161">
        <ele>954</ele>
        <time>2022-06-09T17:40:11Z</time>
      </trkpt>
      <trkpt lat="48.19343" lon="7.11194">
        <ele>952</ele>
        <time>2022-06-09T17:40:18Z</time>
      </trkpt>
      <trkpt lat="48.19414" lon="7.11192">
        <ele>959</ele>
        <time>2022-06-09T17:40:31Z</time>
      </trkpt>
      <trkpt lat="48.19456" lon="7.11157">
        <ele>957</ele>
        <time>2022-06-09T17:40:40Z</time>
      </trkpt>
      <trkpt lat="48.19515" lon="7.11014">
        <ele>982</ele>
        <time>2022-06-09T17:41:00Z</time>
      </trkpt>
      <trkpt lat="48.19537" lon="7.10989">
        <ele>989</ele>
        <time>2022-06-09T17:41:04Z</time>
      </trkpt>
      <trkpt lat="48.19628" lon="7.10979">
        <ele>981</ele>
        <time>2022-06-09T17:41:21Z</time>
      </trkpt>
      <trkpt lat="48.19675" lon="7.10932">
        <ele>998</ele>
        <time>2022-06-09T17:41:31Z</time>
      </trkpt>
      <trkpt lat="48.19787" lon="7.10965">
        <ele>994</ele>
        <time>2022-06-09T17:41:51Z</time>
      </trkpt>
      <trkpt lat="48.19871" lon="7.10969">
        <ele>1000</ele>
        <time>2022-06-09T17:42:06Z</time>
      </trkpt>
      <trkpt lat="48.19907" lon="7.10998">
        <ele>997</ele>
        <time>2022-06-09T17:42:13Z</time>
      </trkpt>
      <trkpt lat="48.19935" lon="7.10982">
        <ele>993</ele>
        <time>2022-06-09T17:42:19Z</time>
      </trkpt>
      <trkpt lat="48.19926" lon="7.10841">
        <ele>1012</ele>
        <time>2022-06-09T17:42:35Z</time>
      </trkpt>
      <trkpt lat="48.19942" lon="7.10703">
        <ele>1017</ele>
        <time>2022-06-09T17:42:52Z</time>
      </trkpt>
      <trkpt lat="48.19749" lon="7.1059">
        <ele>1035</ele>
        <time>2022-06-09T17:43:29Z</time>
      </trkpt>
      <trkpt lat="48.19641" lon="7.10412">
        <ele>1039</ele>
        <time>2022-06-09T17:43:57Z</time>
      </trkpt>
      <trkpt lat="48.19559" lon="7.10374">
        <ele>1046</ele>
        <time>2022-06-09T17:44:13Z</time>
      </trkpt>
      <trkpt lat="48.19334" lon="7.10131">
        <ele>1058</ele>
        <time>2022-06-09T17:45:02Z</time>
      </trkpt>
      <trkpt lat="48.1921" lon="7.1007">
        <ele>1058</ele>
        <time>2022-06-09T17:45:25Z</time>
      </trkpt>
      <trkpt lat="48.1909" lon="7.10097">
        <ele>1061</ele>
        <time>2022-06-09T17:45:47Z</time>
      </trkpt>
      <trkpt lat="48.18973" lon="7.10098">
        <ele>1056</ele>
        <time>2022-06-09T17:46:08Z</time>
      </trkpt>
      <trkpt lat="48.18904" lon="7.10076">
        <ele>1055</ele>
        <time>2022-06-09T17:46:20Z</time>
      </trkpt>
      <trkpt lat="48.18836" lon="7.09945">
        <ele>1063</ele>
        <time>2022-06-09T17:46:40Z</time>
      </trkpt>
      <trkpt lat="48.18827" lon="7.09771">
        <ele>1075</ele>
        <time>2022-06-09T17:47:01Z</time>
      </trkpt>
      <trkpt lat="48.18767" lon="7.09583">
        <ele>1073</ele>
        <time>2022-06-09T17:47:25Z</time>
      </trkpt>
      <trkpt lat="48.18708" lon="7.09463">
        <ele>1074</ele>
        <time>2022-06-09T17:47:43Z</time>
      </trkpt>
      <trkpt lat="48.18546" lon="7.09351">
        <ele>1071</ele>
        <time>2022-06-09T17:48:15Z</time>
      </trkpt>
      <trkpt lat="48.18361" lon="7.09318">
        <ele>1072</ele>
        <time>2022-06-09T17:48:48Z</time>
      </trkpt>
      <trkpt lat="48.18294" lon="7.09273">
        <ele>1066</ele>
        <time>2022-06-09T17:49:01Z</time>
      </trkpt>
      <trkpt lat="48.18273" lon="7.09175">
        <ele>1061</ele>
        <time>2022-06-09T17:49:13Z</time>
      </trkpt>
      <trkpt lat="48.18264" lon="7.08913">
        <ele>1053</ele>
        <time>2022-06-09T17:49:44Z</time>
      </trkpt>
      <trkpt lat="48.18234" lon="7.08858">
        <ele>1058</ele>
        <time>2022-06-09T17:49:53Z</time>
      </trkpt>
      <trkpt lat="48.18141" lon="7.08909">
        <ele>1043</ele>
        <time>2022-06-09T17:50:10Z</time>
      </trkpt>
      <trkpt lat="48.18089" lon="7.08993">
        <ele>1018</ele>
        <time>2022-06-09T17:50:24Z</time>
      </trkpt>
      <trkpt lat="48.17898" lon="7.09105">
        <ele>990</ele>
        <time>2022-06-09T17:51:00Z</time>
      </trkpt>
      <trkpt lat="48.17863" lon="7.09107">
        <ele>982</ele>
        <time>2022-06-09T17:51:07Z</time>
      </trkpt>
      <trkpt lat="48.17821" lon="7.09024">
        <ele>1001</ele>
        <time>2022-06-09T17:51:19Z</time>
      </trkpt>
      <trkpt lat="48.17792" lon="7.09001">
        <ele>1007</ele>
        <time>2022-06-09T17:51:25Z</time>
      </trkpt>
      <trkpt lat="48.17751" lon="7.09041">
        <ele>992</ele>
        <time>2022-06-09T17:51:34Z</time>
      </trkpt>
      <trkpt lat="48.17705" lon="7.0916">
        <ele>961</ele>
        <time>2022-06-09T17:51:50Z</time>
      </trkpt>
      <trkpt lat="48.1766" lon="7.09176">
        <ele>959</ele>
        <time>2022-06-09T17:51:58Z</time>
      </trkpt>
      <trkpt lat="48.17612" lon="7.09164">
        <ele>951</ele>
        <time>2022-06-09T17:52:07Z</time>
      </trkpt>
      <trkpt lat="48.1754" lon="7.09033">
        <ele>954</ele>
        <time>2022-06-09T17:52:27Z</time>
      </trkpt>
      <trkpt lat="48.17519" lon="7.08938">
        <ele>961</ele>
        <time>2022-06-09T17:52:39Z</time>
      </trkpt>
      <trkpt lat="48.17453" lon="7.08816">
        <ele>962</ele>
        <time>2022-06-09T17:52:57Z</time>
      </trkpt>
      <trkpt lat="48.17356" lon="7.08858">
        <ele>949</ele>
        <time>2022-06-09T17:53:15Z</time>
      </trkpt>
      <trkpt lat="48.17329" lon="7.08896">
        <ele>945</ele>
        <time>2022-06-09T17:53:22Z</time>
      </trkpt>
      <trkpt lat="48.17314" lon="7.0901">
        <ele>922</ele>
        <time>2022-06-09T17:53:36Z</time>
      </trkpt>
      <trkpt lat="48.17283" lon="7.09048">
        <ele>919</ele>
        <time>2022-06-09T17:53:43Z</time>
      </trkpt>
      <trkpt lat="48.17236" lon="7.09031">
        <ele>928</ele>
        <time>2022-06-09T17:53:52Z</time>
      </trkpt>
      <trkpt lat="48.17186" lon="7.08957">
        <ele>943</ele>
        <time>2022-06-09T17:54:04Z</time>
      </trkpt>
      <trkpt lat="48.17098" lon="7.08932">
        <ele>942</ele>
        <time>2022-06-09T17:54:20Z</time>
      </trkpt>
      <trkpt lat="48.16973" lon="7.08815">
        <ele>943</ele>
        <time>2022-06-09T17:54:46Z</time>
      </trkpt>
      <trkpt lat="48.16925" lon="7.08738">
        <ele>942</ele>
        <time>2022-06-09T17:54:59Z</time>
      </trkpt>
      <trkpt lat="48.16899" lon="7.08655">
        <ele>942</ele>
        <time>2022-06-09T17:55:10Z</time>
      </trkpt>
      <trkpt lat="48.16905" lon="7.08537">
        <ele>953</ele>
        <time>2022-06-09T17:55:24Z</time>
      </trkpt>
      <trkpt lat="48.16896" lon="7.08192">
        <ele>970</ele>
        <time>2022-06-09T17:56:05Z</time>
      </trkpt>
      <trkpt lat="48.16871" lon="7.08154">
        <ele>971</ele>
        <time>2022-06-09T17:56:11Z</time>
      </trkpt>
      <trkpt lat="48.16797" lon="7.08161">
        <ele>961</ele>
        <time>2022-06-09T17:56:24Z</time>
      </trkpt>
      <trkpt lat="48.16668" lon="7.08129">
        <ele>960</ele>
        <time>2022-06-09T17:56:47Z</time>
      </trkpt>
      <trkpt lat="48.16493" lon="7.07959">
        <ele>951</ele>
        <time>2022-06-09T17:57:24Z</time>
      </trkpt>
      <trkpt lat="48.16457" lon="7.07916">
        <ele>953</ele>
        <time>2022-06-09T17:57:33Z</time>
      </trkpt>
      <trkpt lat="48.16409" lon="7.07897">
        <ele>958</ele>
        <time>2022-06-09T17:57:42Z</time>
      </trkpt>
      <trkpt lat="48.16355" lon="7.07849">
        <ele>963</ele>
        <time>2022-06-09T17:57:53Z</time>
      </trkpt>
      <trkpt lat="48.16255" lon="7.07748">
        <ele>974</ele>
        <time>2022-06-09T17:58:14Z</time>
      </trkpt>
      <trkpt lat="48.16096" lon="7.07719">
        <ele>967</ele>
        <time>2022-06-09T17:58:43Z</time>
      </trkpt>
      <trkpt lat="48.15959" lon="7.07589">
        <ele>968</ele>
        <time>2022-06-09T17:59:11Z</time>
      </trkpt>
      <trkpt lat="48.15906" lon="7.07493">
        <ele>972</ele>
        <time>2022-06-09T17:59:26Z</time>
      </trkpt>
      <trkpt lat="48.15766" lon="7.07352">
        <ele>981</ele>
        <time>2022-06-09T17:59:56Z</time>
      </trkpt>
      <trkpt lat="48.1559" lon="7.07323">
        <ele>988</ele>
        <time>2022-06-09T18:00:28Z</time>
      </trkpt>
      <trkpt lat="48.15383" lon="7.07119">
        <ele>985</ele>
        <time>2022-06-09T18:01:12Z</time>
      </trkpt>
      <trkpt lat="48.15156" lon="7.06993">
        <ele>988</ele>
        <time>2022-06-09T18:01:55Z</time>
      </trkpt>
      <trkpt lat="48.14977" lon="7.06869">
        <ele>992</ele>
        <time>2022-06-09T18:02:30Z</time>
      </trkpt>
      <trkpt lat="48.1484" lon="7.06732">
        <ele>999</ele>
        <time>2022-06-09T18:02:59Z</time>
      </trkpt>
      <trkpt lat="48.14624" lon="7.06762">
        <ele>1018</ele>
        <time>2022-06-09T18:03:38Z</time>
      </trkpt>
      <trkpt lat="48.14402" lon="7.06681">
        <ele>1027</ele>
        <time>2022-06-09T18:04:19Z</time>
      </trkpt>
      <trkpt lat="48.14084" lon="7.06252">
        <ele>1018</ele>
        <time>2022-06-09T18:05:35Z</time>
      </trkpt>
      <trkpt lat="48.14012" lon="7.06219">
        <ele>1019</ele>
        <time>2022-06-09T18:05:48Z</time>
      </trkpt>
      <trkpt lat="48.13956" lon="7.06313">
        <ele>1010</ele>
        <time>2022-06-09T18:06:03Z</time>
      </trkpt>
      <trkpt lat="48.13805" lon="7.06299">
        <ele>994</ele>
        <time>2022-06-09T18:06:30Z</time>
      </trkpt>
      <trkpt lat="48.13663" lon="7.06114">
        <ele>984</ele>
        <time>2022-06-09T18:07:03Z</time>
      </trkpt>
      <trkpt lat="48.13626" lon="7.06142">
        <ele>986</ele>
        <time>2022-06-09T18:07:11Z</time>
      </trkpt>
      <trkpt lat="48.13659" lon="7.06255">
        <ele>988</ele>
        <time>2022-06-09T18:07:25Z</time>
      </trkpt>
      <trkpt lat="48.13648" lon="7.06353">
        <ele>999</ele>
        <time>2022-06-09T18:07:37Z</time>
      </trkpt>
      <trkpt lat="48.13677" lon="7.06502">
        <ele>1008</ele>
        <time>2022-06-09T18:07:56Z</time>
      </trkpt>
      <trkpt lat="48.13679" lon="7.06677">
        <ele>1009</ele>
        <time>2022-06-09T18:08:16Z</time>
      </trkpt>
      <trkpt lat="48.13662" lon="7.06691">
        <ele>1012</ele>
        <time>2022-06-09T18:08:20Z</time>
      </trkpt>
      <trkpt lat="48.13652" lon="7.06569">
        <ele>1019</ele>
        <time>2022-06-09T18:08:35Z</time>
      </trkpt>
      <trkpt lat="48.13588" lon="7.06478">
        <ele>1027</ele>
        <time>2022-06-09T18:08:50Z</time>
      </trkpt>
      <trkpt lat="48.13541" lon="7.06383">
        <ele>1028</ele>
        <time>2022-06-09T18:09:04Z</time>
      </trkpt>
      <trkpt lat="48.1352" lon="7.06383">
        <ele>1033</ele>
        <time>2022-06-09T18:09:08Z</time>
      </trkpt>
      <trkpt lat="48.13551" lon="7.06466">
        <ele>1036</ele>
        <time>2022-06-09T18:09:19Z</time>
      </trkpt>
      <trkpt lat="48.13557" lon="7.06554">
        <ele>1042</ele>
        <time>2022-06-09T18:09:30Z</time>
      </trkpt>
      <trkpt lat="48.13519" lon="7.06686">
        <ele>1049</ele>
        <time>2022-06-09T18:09:47Z</time>
      </trkpt>
      <trkpt lat="48.13396" lon="7.0686">
        <ele>1060</ele>
        <time>2022-06-09T18:10:17Z</time>
      </trkpt>
      <trkpt lat="48.13352" lon="7.07127">
        <ele>1071</ele>
        <time>2022-06-09T18:10:50Z</time>
      </trkpt>
      <trkpt lat="48.13348" lon="7.07454">
        <ele>1096</ele>
        <time>2022-06-09T18:11:28Z</time>
      </trkpt>
      <trkpt lat="48.13485" lon="7.07687">
        <ele>1105</ele>
        <time>2022-06-09T18:12:05Z</time>
      </trkpt>
      <trkpt lat="48.13611" lon="7.07845">
        <ele>1116</ele>
        <time>2022-06-09T18:12:35Z</time>
      </trkpt>
      <trkpt lat="48.137" lon="7.08127">
        <ele>1131</ele>
        <time>2022-06-09T18:13:12Z</time>
      </trkpt>
      <trkpt lat="48.13725" lon="7.085">
        <ele>1140</ele>
        <time>2022-06-09T18:13:56Z</time>
      </trkpt>
      <trkpt lat="48.13658" lon="7.08823">
        <ele>1147</ele>
        <time>2022-06-09T18:14:36Z</time>
      </trkpt>
      <trkpt lat="48.13642" lon="7.0883">
        <ele>1148</ele>
        <time>2022-06-09T18:14:39Z</time>
      </trkpt>
      <trkpt lat="48.13639" lon="7.08805">
        <ele>1149</ele>
        <time>2022-06-09T18:14:42Z</time>
      </trkpt>
      <trkpt lat="48.13673" lon="7.08639">
        <ele>1149</ele>
        <time>2022-06-09T18:15:03Z</time>
      </trkpt>
      <trkpt lat="48.1361" lon="7.08313">
        <ele>1160</ele>
        <time>2022-06-09T18:15:43Z</time>
      </trkpt>
      <trkpt lat="48.13499" lon="7.08098">
        <ele>1164</ele>
        <time>2022-06-09T18:16:15Z</time>
      </trkpt>
      <trkpt lat="48.13216" lon="7.07805">
        <ele>1165</ele>
        <time>2022-06-09T18:17:17Z</time>
      </trkpt>
      <trkpt lat="48.13144" lon="7.0765">
        <ele>1164</ele>
        <time>2022-06-09T18:17:39Z</time>
      </trkpt>
      <trkpt lat="48.12998" lon="7.07207">
        <ele>1161</ele>
        <time>2022-06-09T18:18:38Z</time>
      </trkpt>
      <trkpt lat="48.12757" lon="7.07304">
        <ele>1152</ele>
        <time>2022-06-09T18:19:22Z</time>
      </trkpt>
      <trkpt lat="48.12392" lon="7.07249">
        <ele>1166</ele>
        <time>2022-06-09T18:20:27Z</time>
      </trkpt>
      <trkpt lat="48.12333" lon="7.06919">
        <ele>1164</ele>
        <time>2022-06-09T18:21:08Z</time>
      </trkpt>
      <trkpt lat="48.12204" lon="7.0653">
        <ele>1169</ele>
        <time>2022-06-09T18:22:00Z</time>
      </trkpt>
      <trkpt lat="48.11932" lon="7.06427">
        <ele>1184</ele>
        <time>2022-06-09T18:22:50Z</time>
      </trkpt>
      <trkpt lat="48.11825" lon="7.06284">
        <ele>1189</ele>
        <time>2022-06-09T18:23:15Z</time>
      </trkpt>
      <trkpt lat="48.11689" lon="7.06078">
        <ele>1194</ele>
        <time>2022-06-09T18:23:49Z</time>
      </trkpt>
      <trkpt lat="48.11373" lon="7.05872">
        <ele>1201</ele>
        <time>2022-06-09T18:24:51Z</time>
      </trkpt>
      <trkpt lat="48.11288" lon="7.05917">
        <ele>1203</ele>
        <time>2022-06-09T18:25:07Z</time>
      </trkpt>
      <trkpt lat="48.11294" lon="7.06357">
        <ele>1213</ele>
        <time>2022-06-09T18:25:59Z</time>
      </trkpt>
      <trkpt lat="48.11148" lon="7.06545">
        <ele>1220</ele>
        <time>2022-06-09T18:26:33Z</time>
      </trkpt>
      <trkpt lat="48.10992" lon="7.06527">
        <ele>1224</ele>
        <time>2022-06-09T18:27:01Z</time>
      </trkpt>
      <trkpt lat="48.10836" lon="7.06339">
        <ele>1222</ele>
        <time>2022-06-09T18:27:37Z</time>
      </trkpt>
      <trkpt lat="48.1083" lon="7.06236">
        <ele>1219</ele>
        <time>2022-06-09T18:27:49Z</time>
      </trkpt>
      <trkpt lat="48.10632" lon="7.0599">
        <ele>1228</ele>
        <time>2022-06-09T18:28:35Z</time>
      </trkpt>
      <trkpt lat="48.10378" lon="7.05993">
        <ele>1222</ele>
        <time>2022-06-09T18:29:20Z</time>
      </trkpt>
      <trkpt lat="48.10265" lon="7.05878">
        <ele>1215</ele>
        <time>2022-06-09T18:29:44Z</time>
      </trkpt>
      <trkpt lat="48.10151" lon="7.05505">
        <ele>1206</ele>
        <time>2022-06-09T18:30:33Z</time>
      </trkpt>
      <trkpt lat="48.10042" lon="7.05426">
        <ele>1201</ele>
        <time>2022-06-09T18:30:55Z</time>
      </trkpt>
      <trkpt lat="48.09714" lon="7.05414">
        <ele>1185</ele>
        <time>2022-06-09T18:31:53Z</time>
      </trkpt>
      <trkpt lat="48.09592" lon="7.05538">
        <ele>1196</ele>
        <time>2022-06-09T18:32:19Z</time>
      </trkpt>
      <trkpt lat="48.0943" lon="7.06005">
        <ele>1225</ele>
        <time>2022-06-09T18:33:22Z</time>
      </trkpt>
      <trkpt lat="48.09274" lon="7.06063">
        <ele>1229</ele>
        <time>2022-06-09T18:33:50Z</time>
      </trkpt>
      <trkpt lat="48.09168" lon="7.05723">
        <ele>1223</ele>
        <time>2022-06-09T18:34:35Z</time>
      </trkpt>
      <trkpt lat="48.09075" lon="7.0558">
        <ele>1226</ele>
        <time>2022-06-09T18:34:59Z</time>
      </trkpt>
      <trkpt lat="48.09093" lon="7.05262">
        <ele>1220</ele>
        <time>2022-06-09T18:35:37Z</time>
      </trkpt>
      <trkpt lat="48.09026" lon="7.05165">
        <ele>1223</ele>
        <time>2022-06-09T18:35:53Z</time>
      </trkpt>
      <trkpt lat="48.09057" lon="7.04791">
        <ele>1225</ele>
        <time>2022-06-09T18:36:38Z</time>
      </trkpt>
      <trkpt lat="48.08905" lon="7.04643">
        <ele>1234</ele>
        <time>2022-06-09T18:37:10Z</time>
      </trkpt>
      <trkpt lat="48.08747" lon="7.04743">
        <ele>1226</ele>
        <time>2022-06-09T18:37:41Z</time>
      </trkpt>
      <trkpt lat="48.08649" lon="7.04752">
        <ele>1220</ele>
        <time>2022-06-09T18:37:58Z</time>
      </trkpt>
      <trkpt lat="48.08418" lon="7.04518">
        <ele>1205</ele>
        <time>2022-06-09T18:38:48Z</time>
      </trkpt>
      <trkpt lat="48.08355" lon="7.04415">
        <ele>1212</ele>
        <time>2022-06-09T18:39:05Z</time>
      </trkpt>
      <trkpt lat="48.08244" lon="7.03863">
        <ele>1203</ele>
        <time>2022-06-09T18:40:13Z</time>
      </trkpt>
      <trkpt lat="48.08252" lon="7.03669">
        <ele>1203</ele>
        <time>2022-06-09T18:40:36Z</time>
      </trkpt>
      <trkpt lat="48.08114" lon="7.03417">
        <ele>1201</ele>
        <time>2022-06-09T18:41:15Z</time>
      </trkpt>
      <trkpt lat="48.08013" lon="7.03156">
        <ele>1198</ele>
        <time>2022-06-09T18:41:51Z</time>
      </trkpt>
      <trkpt lat="48.0769" lon="7.0271">
        <ele>1175</ele>
        <time>2022-06-09T18:43:09Z</time>
      </trkpt>
      <trkpt lat="48.07474" lon="7.02355">
        <ele>1172</ele>
        <time>2022-06-09T18:44:06Z</time>
      </trkpt>
      <trkpt lat="48.07257" lon="7.0217">
        <ele>1170</ele>
        <time>2022-06-09T18:44:50Z</time>
      </trkpt>
      <trkpt lat="48.07005" lon="7.02109">
        <ele>1155</ele>
        <time>2022-06-09T18:45:36Z</time>
      </trkpt>
      <trkpt lat="48.06863" lon="7.02185">
        <ele>1151</ele>
        <time>2022-06-09T18:46:03Z</time>
      </trkpt>
      <trkpt lat="48.06709" lon="7.02157">
        <ele>1141</ele>
        <time>2022-06-09T18:46:30Z</time>
      </trkpt>
      <trkpt lat="48.06376" lon="7.02258">
        <ele>1142</ele>
        <time>2022-06-09T18:47:31Z</time>
      </trkpt>
      <trkpt lat="48.06359" lon="7.02181">
        <ele>1137</ele>
        <time>2022-06-09T18:47:40Z</time>
      </trkpt>
      <trkpt lat="48.06311" lon="7.02084">
        <ele>1133</ele>
        <time>2022-06-09T18:47:55Z</time>
      </trkpt>
      <trkpt lat="48.06248" lon="7.02062">
        <ele>1140</ele>
        <time>2022-06-09T18:48:06Z</time>
      </trkpt>
      <trkpt lat="48.06281" lon="7.01977">
        <ele>1137</ele>
        <time>2022-06-09T18:48:18Z</time>
      </trkpt>
      <trkpt lat="48.06253" lon="7.01937">
        <ele>1140</ele>
        <time>2022-06-09T18:48:25Z</time>
      </trkpt>
      <trkpt lat="48.06234" lon="7.01706">
        <ele>1144</ele>
        <time>2022-06-09T18:48:53Z</time>
      </trkpt>
      <trkpt lat="48.06203" lon="7.01697">
        <ele>1151</ele>
        <time>2022-06-09T18:48:58Z</time>
      </trkpt>
      <trkpt lat="48.06195" lon="7.01923">
        <ele>1153</ele>
        <time>2022-06-09T18:49:25Z</time>
      </trkpt>
      <trkpt lat="48.06164" lon="7.01919">
        <ele>1160</ele>
        <time>2022-06-09T18:49:31Z</time>
      </trkpt>
      <trkpt lat="48.06154" lon="7.01719">
        <ele>1163</ele>
        <time>2022-06-09T18:49:54Z</time>
      </trkpt>
      <trkpt lat="48.06091" lon="7.01581">
        <ele>1173</ele>
        <time>2022-06-09T18:50:14Z</time>
      </trkpt>
      <trkpt lat="48.05882" lon="7.0145">
        <ele>1193</ele>
        <time>2022-06-09T18:50:55Z</time>
      </trkpt>
      <trkpt lat="48.05685" lon="7.01441">
        <ele>1208</ele>
        <time>2022-06-09T18:51:30Z</time>
      </trkpt>
      <trkpt lat="48.05498" lon="7.01314">
        <ele>1214</ele>
        <time>2022-06-09T18:52:06Z</time>
      </trkpt>
      <trkpt lat="48.05231" lon="7.01469">
        <ele>1230</ele>
        <time>2022-06-09T18:52:57Z</time>
      </trkpt>
      <trkpt lat="48.05123" lon="7.01441">
        <ele>1233</ele>
        <time>2022-06-09T18:53:17Z</time>
      </trkpt>
      <trkpt lat="48.05095" lon="7.0135">
        <ele>1233</ele>
        <time>2022-06-09T18:53:29Z</time>
      </trkpt>
      <trkpt lat="48.05074" lon="7.01086">
        <ele>1229</ele>
        <time>2022-06-09T18:54:00Z</time>
      </trkpt>
      <trkpt lat="48.05024" lon="7.01035">
        <ele>1230</ele>
        <time>2022-06-09T18:54:11Z</time>
      </trkpt>
      <trkpt lat="48.04936" lon="7.00992">
        <ele>1232</ele>
        <time>2022-06-09T18:54:27Z</time>
      </trkpt>
      <trkpt lat="48.04669" lon="7.00801">
        <ele>1232</ele>
        <time>2022-06-09T18:55:20Z</time>
      </trkpt>
      <trkpt lat="48.04529" lon="7.00692">
        <ele>1232</ele>
        <time>2022-06-09T18:55:48Z</time>
      </trkpt>
      <trkpt lat="48.04437" lon="7.00628">
        <ele>1239</ele>
        <time>2022-06-09T18:56:06Z</time>
      </trkpt>
      <trkpt lat="48.04305" lon="7.00437">
        <ele>1228</ele>
        <time>2022-06-09T18:56:39Z</time>
      </trkpt>
      <trkpt lat="48.04237" lon="7.00444">
        <ele>1235</ele>
        <time>2022-06-09T18:56:51Z</time>
      </trkpt>
      <trkpt lat="48.041" lon="7.0053">
        <ele>1236</ele>
        <time>2022-06-09T18:57:18Z</time>
      </trkpt>
      <trkpt lat="48.04194" lon="7.00389">
        <ele>1220</ele>
        <time>2022-06-09T18:57:41Z</time>
      </trkpt>
      <trkpt lat="48.04258" lon="7.00314">
        <ele>1205</ele>
        <time>2022-06-09T18:57:56Z</time>
      </trkpt>
      <trkpt lat="48.04309" lon="7.00304">
        <ele>1197</ele>
        <time>2022-06-09T18:58:05Z</time>
      </trkpt>
      <trkpt lat="48.04276" lon="7.00267">
        <ele>1194</ele>
        <time>2022-06-09T18:58:12Z</time>
      </trkpt>
    </trkseg>
  </trk>
</gpx>